sensor_id;sensor_type;location;lat;lon;timestamp;P1;durP1;ratioP1;P2;durP2;ratioP2
56712;SDS011;42589;45.536;9.032;2024-02-15T00:02:19;53.78;;;38.90;;
56712;SDS011;42589;45.536;9.032;2024-02-15T00:05:19;56.53;;;38.58;;
56712;SDS011;42589;45.536;9.032;2024-02-15T00:08:20;56.83;;;38.58;;
56712;SDS011;42589;45.536;9.032;2024-02-15T00:11:21;51.88;;;38.25;;
56712;SDS011;42589;45.536;9.032;2024-02-15T00:14:22;57.17;;;39.42;;
56712;SDS011;42589;45.536;9.032;2024-02-15T00:17:23;55.35;;;39.20;;
56712;SDS011;42589;45.536;9.032;2024-02-15T00:20:23;59.22;;;40.22;;
56712;SDS011;42589;45.536;9.032;2024-02-15T00:23:24;55.80;;;40.45;;
56712;SDS011;42589;45.536;9.032;2024-02-15T00:26:25;64.85;;;40.33;;
56712;SDS011;42589;45.536;9.032;2024-02-15T00:29:26;59.33;;;39.20;;
56712;SDS011;42589;45.536;9.032;2024-02-15T00:32:28;61.00;;;42.15;;
56712;SDS011;42589;45.536;9.032;2024-02-15T00:35:30;56.92;;;40.53;;
56712;SDS011;42589;45.536;9.032;2024-02-15T00:38:33;58.78;;;40.65;;
56712;SDS011;42589;45.536;9.032;2024-02-15T00:41:34;56.33;;;40.17;;
56712;SDS011;42589;45.536;9.032;2024-02-15T00:44:35;55.50;;;38.65;;
56712;SDS011;42589;45.536;9.032;2024-02-15T00:47:36;56.95;;;40.95;;
56712;SDS011;42589;45.536;9.032;2024-02-15T00:50:38;55.35;;;40.20;;
56712;SDS011;42589;45.536;9.032;2024-02-15T00:53:38;54.50;;;37.85;;
56712;SDS011;42589;45.536;9.032;2024-02-15T00:56:39;52.65;;;38.15;;
56712;SDS011;42589;45.536;9.032;2024-02-15T00:59:40;54.55;;;39.90;;
56712;SDS011;42589;45.536;9.032;2024-02-15T01:02:43;58.92;;;39.45;;
56712;SDS011;42589;45.536;9.032;2024-02-15T01:05:45;53.65;;;38.50;;
56712;SDS011;42589;45.536;9.032;2024-02-15T01:08:47;53.80;;;39.38;;
56712;SDS011;42589;45.536;9.032;2024-02-15T01:11:47;54.33;;;38.50;;
56712;SDS011;42589;45.536;9.032;2024-02-15T01:14:48;55.30;;;38.30;;
56712;SDS011;42589;45.536;9.032;2024-02-15T01:17:48;54.20;;;37.75;;
56712;SDS011;42589;45.536;9.032;2024-02-15T01:20:49;54.92;;;38.85;;
56712;SDS011;42589;45.536;9.032;2024-02-15T01:23:50;59.17;;;40.20;;
56712;SDS011;42589;45.536;9.032;2024-02-15T01:26:54;56.10;;;39.63;;
56712;SDS011;42589;45.536;9.032;2024-02-15T01:29:55;59.00;;;39.40;;
56712;SDS011;42589;45.536;9.032;2024-02-15T01:32:56;52.83;;;38.20;;
56712;SDS011;42589;45.536;9.032;2024-02-15T01:35:57;54.72;;;38.03;;
56712;SDS011;42589;45.536;9.032;2024-02-15T01:38:57;58.90;;;40.17;;
56712;SDS011;42589;45.536;9.032;2024-02-15T01:41:58;55.72;;;38.80;;
56712;SDS011;42589;45.536;9.032;2024-02-15T01:44:59;58.05;;;38.17;;
56712;SDS011;42589;45.536;9.032;2024-02-15T01:48:01;57.08;;;39.78;;
56712;SDS011;42589;45.536;9.032;2024-02-15T01:51:03;58.25;;;38.67;;
56712;SDS011;42589;45.536;9.032;2024-02-15T01:54:05;56.15;;;37.95;;
56712;SDS011;42589;45.536;9.032;2024-02-15T01:57:05;53.97;;;37.38;;
56712;SDS011;42589;45.536;9.032;2024-02-15T02:00:06;56.15;;;38.72;;
56712;SDS011;42589;45.536;9.032;2024-02-15T02:03:07;59.03;;;38.53;;
56712;SDS011;42589;45.536;9.032;2024-02-15T02:06:09;52.70;;;37.20;;
56712;SDS011;42589;45.536;9.032;2024-02-15T02:09:12;50.55;;;35.92;;
56712;SDS011;42589;45.536;9.032;2024-02-15T02:12:14;49.67;;;35.03;;
56712;SDS011;42589;45.536;9.032;2024-02-15T02:15:15;52.25;;;36.50;;
56712;SDS011;42589;45.536;9.032;2024-02-15T02:18:16;51.42;;;34.80;;
56712;SDS011;42589;45.536;9.032;2024-02-15T02:21:17;45.80;;;34.92;;
56712;SDS011;42589;45.536;9.032;2024-02-15T02:24:21;50.13;;;36.03;;
56712;SDS011;42589;45.536;9.032;2024-02-15T02:27:22;46.58;;;33.55;;
56712;SDS011;42589;45.536;9.032;2024-02-15T02:30:24;47.58;;;34.22;;
56712;SDS011;42589;45.536;9.032;2024-02-15T02:33:29;47.50;;;33.95;;
56712;SDS011;42589;45.536;9.032;2024-02-15T02:36:30;45.97;;;32.95;;
56712;SDS011;42589;45.536;9.032;2024-02-15T02:39:30;47.55;;;33.28;;
56712;SDS011;42589;45.536;9.032;2024-02-15T02:42:31;49.85;;;33.38;;
56712;SDS011;42589;45.536;9.032;2024-02-15T02:45:32;48.20;;;33.53;;
56712;SDS011;42589;45.536;9.032;2024-02-15T02:48:33;47.35;;;32.88;;
56712;SDS011;42589;45.536;9.032;2024-02-15T02:51:33;47.85;;;32.58;;
56712;SDS011;42589;45.536;9.032;2024-02-15T02:54:34;45.20;;;32.08;;
56712;SDS011;42589;45.536;9.032;2024-02-15T02:57:37;44.10;;;31.23;;
56712;SDS011;42589;45.536;9.032;2024-02-15T03:00:38;43.20;;;31.73;;
56712;SDS011;42589;45.536;9.032;2024-02-15T03:03:39;45.53;;;32.25;;
56712;SDS011;42589;45.536;9.032;2024-02-15T03:06:40;43.92;;;31.58;;
56712;SDS011;42589;45.536;9.032;2024-02-15T03:09:42;45.35;;;31.35;;
56712;SDS011;42589;45.536;9.032;2024-02-15T03:12:42;42.50;;;31.95;;
56712;SDS011;42589;45.536;9.032;2024-02-15T03:15:49;46.38;;;32.40;;
56712;SDS011;42589;45.536;9.032;2024-02-15T03:18:50;44.70;;;31.85;;
56712;SDS011;42589;45.536;9.032;2024-02-15T03:21:51;44.90;;;32.28;;
56712;SDS011;42589;45.536;9.032;2024-02-15T03:24:53;47.92;;;31.77;;
56712;SDS011;42589;45.536;9.032;2024-02-15T03:27:55;44.85;;;30.38;;
56712;SDS011;42589;45.536;9.032;2024-02-15T03:30:56;40.88;;;31.05;;
56712;SDS011;42589;45.536;9.032;2024-02-15T03:33:57;41.92;;;31.45;;
56712;SDS011;42589;45.536;9.032;2024-02-15T03:36:58;41.17;;;32.50;;
56712;SDS011;42589;45.536;9.032;2024-02-15T03:39:59;44.13;;;31.25;;
56712;SDS011;42589;45.536;9.032;2024-02-15T03:43:00;45.65;;;33.10;;
56712;SDS011;42589;45.536;9.032;2024-02-15T03:46:01;45.80;;;30.85;;
56712;SDS011;42589;45.536;9.032;2024-02-15T03:49:05;44.15;;;30.63;;
56712;SDS011;42589;45.536;9.032;2024-02-15T03:52:06;39.67;;;30.33;;
56712;SDS011;42589;45.536;9.032;2024-02-15T03:55:06;42.13;;;31.30;;
56712;SDS011;42589;45.536;9.032;2024-02-15T03:58:07;43.50;;;30.83;;
56712;SDS011;42589;45.536;9.032;2024-02-15T04:01:08;42.15;;;29.70;;
56712;SDS011;42589;45.536;9.032;2024-02-15T04:04:10;42.17;;;31.52;;
56712;SDS011;42589;45.536;9.032;2024-02-15T04:07:11;42.03;;;31.05;;
56712;SDS011;42589;45.536;9.032;2024-02-15T04:10:12;40.97;;;31.10;;
56712;SDS011;42589;45.536;9.032;2024-02-15T04:13:13;44.55;;;31.27;;
56712;SDS011;42589;45.536;9.032;2024-02-15T04:16:13;40.88;;;30.67;;
56712;SDS011;42589;45.536;9.032;2024-02-15T04:19:14;41.25;;;29.95;;
56712;SDS011;42589;45.536;9.032;2024-02-15T04:22:15;39.17;;;29.60;;
56712;SDS011;42589;45.536;9.032;2024-02-15T04:25:16;37.58;;;28.88;;
56712;SDS011;42589;45.536;9.032;2024-02-15T04:28:17;39.70;;;28.77;;
56712;SDS011;42589;45.536;9.032;2024-02-15T04:31:17;41.38;;;30.05;;
56712;SDS011;42589;45.536;9.032;2024-02-15T04:34:26;40.53;;;29.25;;
56712;SDS011;42589;45.536;9.032;2024-02-15T04:37:27;37.15;;;28.02;;
56712;SDS011;42589;45.536;9.032;2024-02-15T04:40:31;39.10;;;27.67;;
56712;SDS011;42589;45.536;9.032;2024-02-15T04:43:32;35.28;;;26.90;;
56712;SDS011;42589;45.536;9.032;2024-02-15T04:46:34;43.30;;;28.27;;
56712;SDS011;42589;45.536;9.032;2024-02-15T04:49:34;39.90;;;28.50;;
56712;SDS011;42589;45.536;9.032;2024-02-15T04:52:38;41.45;;;27.77;;
56712;SDS011;42589;45.536;9.032;2024-02-15T04:55:39;45.17;;;30.65;;
56712;SDS011;42589;45.536;9.032;2024-02-15T04:58:40;39.15;;;28.27;;
56712;SDS011;42589;45.536;9.032;2024-02-15T05:01:47;43.38;;;28.30;;
56712;SDS011;42589;45.536;9.032;2024-02-15T05:04:52;43.30;;;27.42;;
56712;SDS011;42589;45.536;9.032;2024-02-15T05:07:56;36.60;;;25.75;;
56712;SDS011;42589;45.536;9.032;2024-02-15T05:10:56;36.38;;;25.60;;
56712;SDS011;42589;45.536;9.032;2024-02-15T05:13:58;33.33;;;24.83;;
56712;SDS011;42589;45.536;9.032;2024-02-15T05:16:59;32.72;;;24.55;;
56712;SDS011;42589;45.536;9.032;2024-02-15T05:20:00;36.45;;;25.05;;
56712;SDS011;42589;45.536;9.032;2024-02-15T05:23:01;36.30;;;25.65;;
56712;SDS011;42589;45.536;9.032;2024-02-15T05:26:02;37.15;;;24.90;;
56712;SDS011;42589;45.536;9.032;2024-02-15T05:29:03;35.10;;;24.75;;
56712;SDS011;42589;45.536;9.032;2024-02-15T05:32:04;33.47;;;24.17;;
56712;SDS011;42589;45.536;9.032;2024-02-15T05:35:05;31.13;;;24.23;;
56712;SDS011;42589;45.536;9.032;2024-02-15T05:38:08;35.08;;;23.65;;
56712;SDS011;42589;45.536;9.032;2024-02-15T05:41:11;31.90;;;23.23;;
56712;SDS011;42589;45.536;9.032;2024-02-15T05:44:11;36.60;;;24.17;;
56712;SDS011;42589;45.536;9.032;2024-02-15T05:47:14;32.95;;;22.23;;
56712;SDS011;42589;45.536;9.032;2024-02-15T05:50:14;32.17;;;23.10;;
56712;SDS011;42589;45.536;9.032;2024-02-15T05:53:15;29.23;;;21.70;;
56712;SDS011;42589;45.536;9.032;2024-02-15T05:56:22;30.83;;;22.15;;
56712;SDS011;42589;45.536;9.032;2024-02-15T05:59:22;28.55;;;22.02;;
56712;SDS011;42589;45.536;9.032;2024-02-15T06:02:23;29.20;;;22.17;;
56712;SDS011;42589;45.536;9.032;2024-02-15T06:05:24;29.58;;;21.92;;
56712;SDS011;42589;45.536;9.032;2024-02-15T06:08:24;27.02;;;20.92;;
56712;SDS011;42589;45.536;9.032;2024-02-15T06:11:25;36.33;;;22.77;;
56712;SDS011;42589;45.536;9.032;2024-02-15T06:17:37;31.90;;;23.20;;
56712;SDS011;42589;45.536;9.032;2024-02-15T06:20:38;31.45;;;24.73;;
56712;SDS011;42589;45.536;9.032;2024-02-15T06:23:39;35.80;;;23.73;;
56712;SDS011;42589;45.536;9.032;2024-02-15T06:26:39;34.05;;;23.00;;
56712;SDS011;42589;45.536;9.032;2024-02-15T06:29:41;31.45;;;22.13;;
56712;SDS011;42589;45.536;9.032;2024-02-15T06:33:01;33.35;;;23.42;;
56712;SDS011;42589;45.536;9.032;2024-02-15T06:36:20;31.77;;;22.90;;
56712;SDS011;42589;45.536;9.032;2024-02-15T06:39:39;33.85;;;23.67;;
56712;SDS011;42589;45.536;9.032;2024-02-15T06:42:44;34.38;;;23.63;;
56712;SDS011;42589;45.536;9.032;2024-02-15T06:45:45;30.02;;;21.63;;
56712;SDS011;42589;45.536;9.032;2024-02-15T06:48:49;31.58;;;22.55;;
56712;SDS011;42589;45.536;9.032;2024-02-15T06:51:50;30.58;;;21.80;;
56712;SDS011;42589;45.536;9.032;2024-02-15T06:54:50;33.38;;;22.30;;
56712;SDS011;42589;45.536;9.032;2024-02-15T06:57:52;30.23;;;21.83;;
56712;SDS011;42589;45.536;9.032;2024-02-15T07:00:55;33.72;;;22.25;;
56712;SDS011;42589;45.536;9.032;2024-02-15T07:03:56;32.38;;;21.65;;
56712;SDS011;42589;45.536;9.032;2024-02-15T07:06:57;27.67;;;21.67;;
56712;SDS011;42589;45.536;9.032;2024-02-15T07:09:58;32.25;;;21.92;;
56712;SDS011;42589;45.536;9.032;2024-02-15T07:12:58;31.63;;;20.88;;
56712;SDS011;42589;45.536;9.032;2024-02-15T07:15:58;32.10;;;22.85;;
56712;SDS011;42589;45.536;9.032;2024-02-15T07:18:59;32.45;;;21.52;;
56712;SDS011;42589;45.536;9.032;2024-02-15T07:22:00;32.00;;;21.20;;
56712;SDS011;42589;45.536;9.032;2024-02-15T07:25:01;30.63;;;21.23;;
56712;SDS011;42589;45.536;9.032;2024-02-15T07:28:03;32.33;;;20.65;;
56712;SDS011;42589;45.536;9.032;2024-02-15T07:31:04;30.48;;;20.98;;
56712;SDS011;42589;45.536;9.032;2024-02-15T07:34:07;28.52;;;21.05;;
56712;SDS011;42589;45.536;9.032;2024-02-15T07:37:10;36.50;;;24.02;;
56712;SDS011;42589;45.536;9.032;2024-02-15T07:40:13;37.70;;;23.30;;
56712;SDS011;42589;45.536;9.032;2024-02-15T07:43:13;40.17;;;24.95;;
56712;SDS011;42589;45.536;9.032;2024-02-15T07:46:14;35.70;;;24.63;;
56712;SDS011;42589;45.536;9.032;2024-02-15T07:49:16;34.88;;;25.52;;
56712;SDS011;42589;45.536;9.032;2024-02-15T07:52:22;36.75;;;24.75;;
56712;SDS011;42589;45.536;9.032;2024-02-15T07:55:23;37.80;;;25.05;;
56712;SDS011;42589;45.536;9.032;2024-02-15T07:58:24;36.20;;;24.42;;
56712;SDS011;42589;45.536;9.032;2024-02-15T08:01:24;42.20;;;24.25;;
56712;SDS011;42589;45.536;9.032;2024-02-15T08:04:25;35.85;;;23.00;;
56712;SDS011;42589;45.536;9.032;2024-02-15T08:07:26;49.78;;;27.85;;
56712;SDS011;42589;45.536;9.032;2024-02-15T08:10:31;39.03;;;26.38;;
56712;SDS011;42589;45.536;9.032;2024-02-15T08:13:34;56.30;;;27.80;;
56712;SDS011;42589;45.536;9.032;2024-02-15T08:16:38;47.10;;;27.55;;
56712;SDS011;42589;45.536;9.032;2024-02-15T08:19:40;37.20;;;24.73;;
56712;SDS011;42589;45.536;9.032;2024-02-15T08:22:42;39.30;;;28.30;;
56712;SDS011;42589;45.536;9.032;2024-02-15T08:25:44;41.58;;;28.27;;
56712;SDS011;42589;45.536;9.032;2024-02-15T08:28:44;42.28;;;29.23;;
56712;SDS011;42589;45.536;9.032;2024-02-15T08:31:46;47.08;;;31.13;;
56712;SDS011;42589;45.536;9.032;2024-02-15T08:34:46;48.17;;;31.55;;
56712;SDS011;42589;45.536;9.032;2024-02-15T08:37:49;46.78;;;33.35;;
56712;SDS011;42589;45.536;9.032;2024-02-15T08:40:51;43.22;;;32.03;;
56712;SDS011;42589;45.536;9.032;2024-02-15T08:43:52;51.00;;;34.70;;
56712;SDS011;42589;45.536;9.032;2024-02-15T08:46:53;50.40;;;36.28;;
56712;SDS011;42589;45.536;9.032;2024-02-15T08:49:56;52.58;;;36.35;;
56712;SDS011;42589;45.536;9.032;2024-02-15T08:52:59;46.13;;;34.00;;
56712;SDS011;42589;45.536;9.032;2024-02-15T08:55:59;52.05;;;35.08;;
56712;SDS011;42589;45.536;9.032;2024-02-15T08:58:59;49.15;;;36.17;;
56712;SDS011;42589;45.536;9.032;2024-02-15T09:02:00;51.40;;;35.88;;
56712;SDS011;42589;45.536;9.032;2024-02-15T09:05:01;50.42;;;36.65;;
56712;SDS011;42589;45.536;9.032;2024-02-15T09:08:02;49.15;;;36.08;;
56712;SDS011;42589;45.536;9.032;2024-02-15T09:11:05;57.17;;;36.55;;
56712;SDS011;42589;45.536;9.032;2024-02-15T09:14:06;49.42;;;37.78;;
56712;SDS011;42589;45.536;9.032;2024-02-15T09:17:06;46.47;;;35.70;;
56712;SDS011;42589;45.536;9.032;2024-02-15T09:20:12;50.50;;;39.50;;
56712;SDS011;42589;45.536;9.032;2024-02-15T09:23:16;52.13;;;39.28;;
56712;SDS011;42589;45.536;9.032;2024-02-15T09:26:17;53.60;;;40.72;;
56712;SDS011;42589;45.536;9.032;2024-02-15T09:29:18;54.88;;;40.28;;
56712;SDS011;42589;45.536;9.032;2024-02-15T09:32:21;53.17;;;40.28;;
56712;SDS011;42589;45.536;9.032;2024-02-15T09:35:22;59.00;;;42.97;;
56712;SDS011;42589;45.536;9.032;2024-02-15T09:38:23;55.55;;;40.58;;
56712;SDS011;42589;45.536;9.032;2024-02-15T09:41:25;56.78;;;41.83;;
56712;SDS011;42589;45.536;9.032;2024-02-15T09:44:26;52.28;;;38.53;;
56712;SDS011;42589;45.536;9.032;2024-02-15T09:47:31;52.78;;;40.40;;
56712;SDS011;42589;45.536;9.032;2024-02-15T09:50:34;57.33;;;43.25;;
56712;SDS011;42589;45.536;9.032;2024-02-15T09:53:34;55.28;;;42.42;;
56712;SDS011;42589;45.536;9.032;2024-02-15T09:56:35;62.50;;;45.30;;
56712;SDS011;42589;45.536;9.032;2024-02-15T09:59:37;56.20;;;41.70;;
56712;SDS011;42589;45.536;9.032;2024-02-15T10:02:42;55.25;;;42.33;;
56712;SDS011;42589;45.536;9.032;2024-02-15T10:06:04;58.67;;;42.47;;
56712;SDS011;42589;45.536;9.032;2024-02-15T10:09:27;56.50;;;42.97;;
56712;SDS011;42589;45.536;9.032;2024-02-15T10:12:36;56.72;;;42.15;;
56712;SDS011;42589;45.536;9.032;2024-02-15T10:15:37;50.78;;;38.90;;
56712;SDS011;42589;45.536;9.032;2024-02-15T10:18:39;54.40;;;41.70;;
56712;SDS011;42589;45.536;9.032;2024-02-15T10:21:39;56.72;;;41.13;;
56712;SDS011;42589;45.536;9.032;2024-02-15T10:24:40;56.78;;;42.92;;
56712;SDS011;42589;45.536;9.032;2024-02-15T10:27:41;53.20;;;40.95;;
56712;SDS011;42589;45.536;9.032;2024-02-15T10:30:43;58.08;;;42.33;;
56712;SDS011;42589;45.536;9.032;2024-02-15T10:33:45;55.08;;;40.30;;
56712;SDS011;42589;45.536;9.032;2024-02-15T10:36:47;53.25;;;37.97;;
56712;SDS011;42589;45.536;9.032;2024-02-15T10:39:58;59.03;;;43.45;;
56712;SDS011;42589;45.536;9.032;2024-02-15T10:43:07;55.05;;;41.33;;
56712;SDS011;42589;45.536;9.032;2024-02-15T10:46:08;60.63;;;42.78;;
56712;SDS011;42589;45.536;9.032;2024-02-15T10:49:10;56.35;;;42.72;;
56712;SDS011;42589;45.536;9.032;2024-02-15T10:52:10;56.55;;;42.67;;
56712;SDS011;42589;45.536;9.032;2024-02-15T10:55:12;57.65;;;42.15;;
56712;SDS011;42589;45.536;9.032;2024-02-15T10:58:16;57.80;;;41.35;;
56712;SDS011;42589;45.536;9.032;2024-02-15T11:01:19;57.67;;;41.78;;
56712;SDS011;42589;45.536;9.032;2024-02-15T11:04:22;59.35;;;42.38;;
56712;SDS011;42589;45.536;9.032;2024-02-15T11:07:26;55.42;;;41.88;;
56712;SDS011;42589;45.536;9.032;2024-02-15T11:10:30;56.78;;;42.08;;
56712;SDS011;42589;45.536;9.032;2024-02-15T11:13:31;59.95;;;42.88;;
56712;SDS011;42589;45.536;9.032;2024-02-15T11:16:43;58.10;;;43.95;;
56712;SDS011;42589;45.536;9.032;2024-02-15T11:19:44;59.80;;;42.17;;
56712;SDS011;42589;45.536;9.032;2024-02-15T11:22:55;55.15;;;39.38;;
56712;SDS011;42589;45.536;9.032;2024-02-15T11:25:57;60.33;;;42.90;;
56712;SDS011;42589;45.536;9.032;2024-02-15T11:29:01;60.92;;;42.22;;
56712;SDS011;42589;45.536;9.032;2024-02-15T11:32:04;60.70;;;42.03;;
56712;SDS011;42589;45.536;9.032;2024-02-15T11:35:07;55.40;;;41.33;;
56712;SDS011;42589;45.536;9.032;2024-02-15T11:38:28;60.53;;;43.90;;
56712;SDS011;42589;45.536;9.032;2024-02-15T11:41:29;58.55;;;42.28;;
56712;SDS011;42589;45.536;9.032;2024-02-15T11:44:29;57.85;;;40.20;;
56712;SDS011;42589;45.536;9.032;2024-02-15T11:47:32;56.85;;;40.83;;
56712;SDS011;42589;45.536;9.032;2024-02-15T11:50:34;57.38;;;40.90;;
56712;SDS011;42589;45.536;9.032;2024-02-15T11:53:37;55.90;;;40.08;;
56712;SDS011;42589;45.536;9.032;2024-02-15T11:59:44;60.13;;;39.88;;
56712;SDS011;42589;45.536;9.032;2024-02-15T12:03:13;58.38;;;40.47;;
56712;SDS011;42589;45.536;9.032;2024-02-15T12:06:33;57.20;;;39.85;;
56712;SDS011;42589;45.536;9.032;2024-02-15T12:09:57;56.83;;;41.25;;
56712;SDS011;42589;45.536;9.032;2024-02-15T12:13:19;63.75;;;42.58;;
56712;SDS011;42589;45.536;9.032;2024-02-15T12:16:38;55.85;;;41.28;;
56712;SDS011;42589;45.536;9.032;2024-02-15T12:20:02;59.65;;;41.35;;
56712;SDS011;42589;45.536;9.032;2024-02-15T12:23:07;56.95;;;39.92;;
56712;SDS011;42589;45.536;9.032;2024-02-15T12:26:08;56.45;;;39.35;;
56712;SDS011;42589;45.536;9.032;2024-02-15T12:29:09;59.78;;;39.33;;
56712;SDS011;42589;45.536;9.032;2024-02-15T12:32:10;57.30;;;38.92;;
56712;SDS011;42589;45.536;9.032;2024-02-15T12:35:11;57.30;;;39.97;;
56712;SDS011;42589;45.536;9.032;2024-02-15T12:38:16;57.28;;;39.65;;
56712;SDS011;42589;45.536;9.032;2024-02-15T12:41:19;61.03;;;40.22;;
56712;SDS011;42589;45.536;9.032;2024-02-15T12:44:19;57.97;;;40.47;;
56712;SDS011;42589;45.536;9.032;2024-02-15T12:47:25;60.65;;;43.03;;
56712;SDS011;42589;45.536;9.032;2024-02-15T12:50:30;59.08;;;41.05;;
56712;SDS011;42589;45.536;9.032;2024-02-15T12:53:31;62.28;;;41.60;;
56712;SDS011;42589;45.536;9.032;2024-02-15T12:56:33;65.35;;;42.47;;
56712;SDS011;42589;45.536;9.032;2024-02-15T12:59:34;56.25;;;40.75;;
56712;SDS011;42589;45.536;9.032;2024-02-15T13:02:35;62.20;;;40.20;;
56712;SDS011;42589;45.536;9.032;2024-02-15T13:05:37;58.42;;;40.65;;
56712;SDS011;42589;45.536;9.032;2024-02-15T13:08:38;58.83;;;41.13;;
56712;SDS011;42589;45.536;9.032;2024-02-15T13:11:40;59.20;;;42.95;;
56712;SDS011;42589;45.536;9.032;2024-02-15T13:14:40;60.58;;;43.17;;
56712;SDS011;42589;45.536;9.032;2024-02-15T13:17:44;59.72;;;42.83;;
56712;SDS011;42589;45.536;9.032;2024-02-15T13:23:50;56.35;;;40.08;;
56712;SDS011;42589;45.536;9.032;2024-02-15T13:26:54;61.13;;;41.25;;
56712;SDS011;42589;45.536;9.032;2024-02-15T13:29:56;65.18;;;43.50;;
56712;SDS011;42589;45.536;9.032;2024-02-15T13:32:58;60.42;;;39.70;;
56712;SDS011;42589;45.536;9.032;2024-02-15T13:35:59;61.55;;;39.60;;
56712;SDS011;42589;45.536;9.032;2024-02-15T13:38:59;60.28;;;41.45;;
56712;SDS011;42589;45.536;9.032;2024-02-15T13:42:01;63.72;;;43.15;;
56712;SDS011;42589;45.536;9.032;2024-02-15T13:45:02;62.42;;;43.28;;
56712;SDS011;42589;45.536;9.032;2024-02-15T13:48:03;64.90;;;41.58;;
56712;SDS011;42589;45.536;9.032;2024-02-15T13:51:05;59.08;;;41.50;;
56712;SDS011;42589;45.536;9.032;2024-02-15T13:54:09;59.88;;;40.58;;
56712;SDS011;42589;45.536;9.032;2024-02-15T13:57:10;56.45;;;38.78;;
56712;SDS011;42589;45.536;9.032;2024-02-15T14:00:11;59.10;;;37.63;;
56712;SDS011;42589;45.536;9.032;2024-02-15T14:03:29;56.40;;;36.85;;
56712;SDS011;42589;45.536;9.032;2024-02-15T14:06:30;62.88;;;39.17;;
56712;SDS011;42589;45.536;9.032;2024-02-15T14:09:31;57.40;;;38.25;;
56712;SDS011;42589;45.536;9.032;2024-02-15T14:12:32;52.75;;;35.75;;
56712;SDS011;42589;45.536;9.032;2024-02-15T14:15:33;56.38;;;39.30;;
56712;SDS011;42589;45.536;9.032;2024-02-15T14:18:40;60.58;;;40.70;;
56712;SDS011;42589;45.536;9.032;2024-02-15T14:21:45;67.13;;;41.35;;
56712;SDS011;42589;45.536;9.032;2024-02-15T14:25:06;59.60;;;39.05;;
56712;SDS011;42589;45.536;9.032;2024-02-15T14:28:07;55.17;;;37.72;;
56712;SDS011;42589;45.536;9.032;2024-02-15T14:31:10;55.45;;;36.63;;
56712;SDS011;42589;45.536;9.032;2024-02-15T14:34:30;57.72;;;37.33;;
56712;SDS011;42589;45.536;9.032;2024-02-15T14:37:31;65.10;;;41.30;;
56712;SDS011;42589;45.536;9.032;2024-02-15T14:40:33;60.35;;;40.05;;
56712;SDS011;42589;45.536;9.032;2024-02-15T14:43:33;62.20;;;41.05;;
56712;SDS011;42589;45.536;9.032;2024-02-15T14:46:34;62.95;;;38.95;;
56712;SDS011;42589;45.536;9.032;2024-02-15T14:49:35;57.55;;;36.75;;
56712;SDS011;42589;45.536;9.032;2024-02-15T14:52:36;57.53;;;35.47;;
56712;SDS011;42589;45.536;9.032;2024-02-15T14:55:39;49.65;;;32.42;;
56712;SDS011;42589;45.536;9.032;2024-02-15T14:58:40;59.15;;;35.63;;
56712;SDS011;42589;45.536;9.032;2024-02-15T15:01:40;59.75;;;36.25;;
56712;SDS011;42589;45.536;9.032;2024-02-15T15:04:41;57.03;;;34.95;;
56712;SDS011;42589;45.536;9.032;2024-02-15T15:08:07;60.50;;;38.03;;
56712;SDS011;42589;45.536;9.032;2024-02-15T15:11:26;55.95;;;37.33;;
56712;SDS011;42589;45.536;9.032;2024-02-15T15:14:45;57.00;;;35.83;;
56712;SDS011;42589;45.536;9.032;2024-02-15T15:17:46;53.80;;;36.35;;
56712;SDS011;42589;45.536;9.032;2024-02-15T15:20:48;59.78;;;38.10;;
56712;SDS011;42589;45.536;9.032;2024-02-15T15:23:48;56.13;;;36.13;;
56712;SDS011;42589;45.536;9.032;2024-02-15T15:26:50;53.53;;;33.90;;
56712;SDS011;42589;45.536;9.032;2024-02-15T15:29:51;50.55;;;33.35;;
56712;SDS011;42589;45.536;9.032;2024-02-15T15:32:53;54.97;;;34.10;;
56712;SDS011;42589;45.536;9.032;2024-02-15T15:35:54;53.30;;;33.15;;
56712;SDS011;42589;45.536;9.032;2024-02-15T15:38:54;54.35;;;33.60;;
56712;SDS011;42589;45.536;9.032;2024-02-15T15:41:55;56.10;;;35.42;;
56712;SDS011;42589;45.536;9.032;2024-02-15T15:44:56;52.00;;;33.38;;
56712;SDS011;42589;45.536;9.032;2024-02-15T15:47:57;54.83;;;34.30;;
56712;SDS011;42589;45.536;9.032;2024-02-15T15:50:59;51.92;;;33.97;;
56712;SDS011;42589;45.536;9.032;2024-02-15T15:54:01;54.28;;;34.08;;
56712;SDS011;42589;45.536;9.032;2024-02-15T15:57:04;50.90;;;33.13;;
56712;SDS011;42589;45.536;9.032;2024-02-15T16:00:09;52.83;;;34.17;;
56712;SDS011;42589;45.536;9.032;2024-02-15T16:03:13;54.60;;;34.88;;
56712;SDS011;42589;45.536;9.032;2024-02-15T16:06:14;56.90;;;35.63;;
56712;SDS011;42589;45.536;9.032;2024-02-15T16:09:15;55.95;;;34.88;;
56712;SDS011;42589;45.536;9.032;2024-02-15T16:12:15;58.90;;;34.97;;
56712;SDS011;42589;45.536;9.032;2024-02-15T16:15:21;56.25;;;35.08;;
56712;SDS011;42589;45.536;9.032;2024-02-15T16:18:21;61.53;;;39.35;;
56712;SDS011;42589;45.536;9.032;2024-02-15T16:21:23;63.92;;;41.22;;
56712;SDS011;42589;45.536;9.032;2024-02-15T16:24:24;63.83;;;40.60;;
56712;SDS011;42589;45.536;9.032;2024-02-15T16:27:25;66.40;;;41.45;;
56712;SDS011;42589;45.536;9.032;2024-02-15T16:30:26;67.93;;;40.92;;
56712;SDS011;42589;45.536;9.032;2024-02-15T16:33:28;70.90;;;44.25;;
56712;SDS011;42589;45.536;9.032;2024-02-15T16:36:28;66.35;;;43.47;;
56712;SDS011;42589;45.536;9.032;2024-02-15T16:39:30;65.53;;;41.47;;
56712;SDS011;42589;45.536;9.032;2024-02-15T16:42:30;66.35;;;42.67;;
56712;SDS011;42589;45.536;9.032;2024-02-15T16:45:34;70.73;;;44.17;;
56712;SDS011;42589;45.536;9.032;2024-02-15T16:48:37;74.40;;;44.72;;
56712;SDS011;42589;45.536;9.032;2024-02-15T16:51:38;76.47;;;45.17;;
56712;SDS011;42589;45.536;9.032;2024-02-15T16:54:40;68.60;;;42.92;;
56712;SDS011;42589;45.536;9.032;2024-02-15T16:57:40;65.28;;;41.90;;
56712;SDS011;42589;45.536;9.032;2024-02-15T17:00:41;64.50;;;43.25;;
56712;SDS011;42589;45.536;9.032;2024-02-15T17:03:43;65.50;;;43.20;;
56712;SDS011;42589;45.536;9.032;2024-02-15T17:06:44;68.07;;;44.17;;
56712;SDS011;42589;45.536;9.032;2024-02-15T17:09:45;66.13;;;43.47;;
56712;SDS011;42589;45.536;9.032;2024-02-15T17:12:46;69.75;;;43.97;;
56712;SDS011;42589;45.536;9.032;2024-02-15T17:15:47;70.28;;;44.97;;
56712;SDS011;42589;45.536;9.032;2024-02-15T17:18:48;70.35;;;45.60;;
56712;SDS011;42589;45.536;9.032;2024-02-15T17:21:51;75.47;;;49.30;;
56712;SDS011;42589;45.536;9.032;2024-02-15T17:24:51;77.38;;;47.60;;
56712;SDS011;42589;45.536;9.032;2024-02-15T17:27:53;77.07;;;47.10;;
56712;SDS011;42589;45.536;9.032;2024-02-15T17:30:55;71.75;;;46.67;;
56712;SDS011;42589;45.536;9.032;2024-02-15T17:33:56;72.25;;;46.63;;
56712;SDS011;42589;45.536;9.032;2024-02-15T17:36:56;68.22;;;45.80;;
56712;SDS011;42589;45.536;9.032;2024-02-15T17:39:58;75.38;;;47.70;;
56712;SDS011;42589;45.536;9.032;2024-02-15T17:42:59;78.15;;;48.67;;
56712;SDS011;42589;45.536;9.032;2024-02-15T17:45:59;76.68;;;48.63;;
56712;SDS011;42589;45.536;9.032;2024-02-15T17:49:01;74.45;;;49.47;;
56712;SDS011;42589;45.536;9.032;2024-02-15T17:52:02;79.00;;;49.65;;
56712;SDS011;42589;45.536;9.032;2024-02-15T17:55:04;83.00;;;49.97;;
56712;SDS011;42589;45.536;9.032;2024-02-15T17:58:06;70.03;;;48.33;;